Time;durP1;ratioP1;P1;durP2;ratioP2;P2;SDS_P1;SDS_P2;PMS_P1;PMS_P2;Temp;Humidity;BMP_temperature;BMP_pressure;BME280_temperature;BME280_humidity;BME280_pressure;Samples;Min_cycle;Max_cycle;Signal;HPM_P1;HPM_P2
2022/05/06 09:56:16;;;;;;;10.77;8.40;;;17.30;99.90;;;;;;5107506;27;20371;-68
2022/05/06 09:58:42;;;;;;;8.73;7.68;;;17.40;99.90;;;;;;5108258;28;20067;-67
2022/05/06 10:01:08;;;;;;;9.00;8.00;;;17.20;99.90;;;;;;5104939;28;20032;-67
2022/05/06 10:03:33;;;;;;;9.45;8.40;;;17.10;99.90;;;;;;5106540;28;20031;-68
2022/05/06 10:07:56;;;;;;;13.52;8.05;;;17.50;99.90;;;;;;5018520;27;2521084;-68
2022/05/06 10:10:26;;;;;;;8.60;7.78;;;18.00;99.90;;;;;;5072292;28;20051;-66
2022/05/06 10:12:56;;;;;;;7.53;6.93;;;18.10;99.90;;;;;;5087628;28;20036;-67
2022/05/06 10:15:24;;;;;;;14.07;8.00;;;18.10;99.90;;;;;;5108110;28;20036;-67
2022/05/06 10:17:57;;;;;;;8.45;7.65;;;18.10;99.90;;;;;;5106862;28;20422;-68
2022/05/06 10:20:43;;;;;;;9.50;7.40;;;18.10;99.90;;;;;;5089667;28;20032;-66
2022/05/06 10:23:15;;;;;;;9.05;8.02;;;17.90;99.90;;;;;;5081021;28;20036;-66
2022/05/06 10:25:40;;;;;;;7.32;6.63;;;18.20;99.90;;;;;;5052556;28;20058;-65
2022/05/06 10:34:11;;;;;;;6.38;5.78;;;18.20;99.90;;;;;;5087354;28;20119;-66
2022/05/06 10:36:43;;;;;;;5.68;5.13;;;18.50;99.90;;;;;;5089780;28;20054;-66
2022/05/06 10:39:26;;;;;;;6.82;5.82;;;18.80;99.90;;;;;;5083282;28;20123;-67
2022/05/06 10:42:04;;;;;;;6.68;6.05;;;19.00;99.90;;;;;;5052435;28;20050;-66
2022/05/06 10:44:39;;;;;;;4.93;4.43;;;19.40;99.90;;;;;;5087560;28;20066;-68
2022/05/06 10:47:42;;;;;;;4.18;3.78;;;19.40;99.90;;;;;;5089096;28;20509;-67
2022/05/06 10:50:16;;;;;;;4.80;4.38;;;19.50;99.90;;;;;;5072119;28;20120;-66
2022/05/06 10:52:42;;;;;;;6.05;5.38;;;19.70;99.90;;;;;;5089386;28;20435;-66
2022/05/06 10:55:11;;;;;;;6.68;5.07;;;20.00;99.90;;;;;;5074568;28;20086;-67
2022/05/06 10:58:02;;;;;;;5.15;3.90;;;19.80;99.90;;;;;;5068959;28;20055;-67
2022/05/06 11:00:30;;;;;;;5.18;3.67;;;19.90;98.20;;;;;;5082540;28;20100;-66
2022/05/06 11:02:58;;;;;;;5.05;4.13;;;19.80;99.40;;;;;;5088242;28;20087;-66
2022/05/06 11:05:25;;;;;;;6.05;5.10;;;20.10;99.90;;;;;;5088336;28;20044;-67
2022/05/06 11:07:55;;;;;;;5.15;4.22;;;19.90;99.30;;;;;;5080787;28;20041;-65
2022/05/06 11:10:23;;;;;;;6.03;4.32;;;20.20;98.80;;;;;;5077791;28;20696;-66
2022/05/06 11:12:51;;;;;;;7.25;4.30;;;20.30;98.30;;;;;;5086293;28;20043;-66
2022/05/06 11:15:29;;;;;;;5.65;4.65;;;20.40;98.50;;;;;;5081156;28;20040;-66
2022/05/06 11:17:57;;;;;;;8.27;4.90;;;20.20;98.40;;;;;;5055886;28;20056;-66
2022/05/06 11:20:26;;;;;;;4.40;4.00;;;20.20;98.40;;;;;;5076014;28;20407;-65
2022/05/06 11:23:11;;;;;;;5.07;4.57;;;20.50;98.60;;;;;;5059622;28;20051;-66
2022/05/06 11:25:47;;;;;;;5.88;4.45;;;20.40;97.70;;;;;;5091074;28;20051;-67
2022/05/06 11:28:17;;;;;;;4.75;4.25;;;20.10;98.00;;;;;;5055272;28;20097;-66
2022/05/06 11:30:45;;;;;;;4.35;3.78;;;20.40;98.40;;;;;;5074987;28;20394;-67
2022/05/06 11:33:19;;;;;;;5.25;4.13;;;20.20;97.00;;;;;;5062920;28;20024;-67
2022/05/06 11:35:49;;;;;;;7.10;4.10;;;20.40;98.10;;;;;;5047146;28;20048;-66
2022/05/06 11:38:28;;;;;;;4.68;3.85;;;20.60;97.50;;;;;;5062907;28;20555;-65
2022/05/06 11:40:54;;;;;;;5.40;4.85;;;20.60;96.90;;;;;;5060799;28;20089;-66
2022/05/06 11:43:21;;;;;;;4.95;4.45;;;20.40;97.20;;;;;;5054674;28;20119;-67
2022/05/06 11:48:42;;;;;;;8.80;4.20;;;20.10;97.00;;;;;;5074751;28;20051;-66
2022/05/06 11:51:11;;;;;;;5.53;4.70;;;20.10;97.40;;;;;;5049371;28;20040;-67
2022/05/06 11:53:40;;;;;;;5.50;4.57;;;19.90;97.30;;;;;;5054347;28;20048;-67
2022/05/06 11:56:06;;;;;;;8.45;4.40;;;19.80;97.40;;;;;;5059042;28;20046;-67
2022/05/06 11:58:34;;;;;;;5.40;4.45;;;20.10;98.30;;;;;;5061967;28;20071;-67
2022/05/06 12:01:00;;;;;;;6.30;4.97;;;20.20;97.80;;;;;;5074398;28;20085;-67
2022/05/06 12:03:26;;;;;;;7.57;5.10;;;20.60;98.00;;;;;;5074424;28;20044;-66
2022/05/06 12:06:07;;;;;;;7.80;5.22;;;20.40;97.00;;;;;;5069042;28;20511;-67
2022/05/06 12:08:35;;;;;;;6.68;4.80;;;20.30;96.30;;;;;;5049719;28;20056;-66
2022/05/06 12:11:06;;;;;;;6.40;5.38;;;20.40;97.10;;;;;;5046872;28;20036;-66
2022/05/06 12:13:38;;;;;;;6.53;4.90;;;20.40;97.30;;;;;;5050776;28;20035;-66
2022/05/06 12:16:09;;;;;;;6.50;5.05;;;20.30;97.40;;;;;;5036784;28;20400;-66
2022/05/06 12:18:36;;;;;;;12.43;5.18;;;20.30;96.20;;;;;;5048329;28;20083;-66
2022/05/06 12:21:17;;;;;;;9.48;5.78;;;20.40;96.30;;;;;;5037691;28;20062;-66
2022/05/06 12:23:53;;;;;;;7.80;6.22;;;20.20;96.50;;;;;;5071781;28;20382;-67
2022/05/06 12:26:36;;;;;;;8.55;5.93;;;20.00;96.30;;;;;;5053794;28;20053;-66
2022/05/06 12:29:04;;;;;;;8.80;6.85;;;20.10;97.30;;;;;;5044737;28;20037;-66
2022/05/06 12:31:32;;;;;;;8.45;6.22;;;20.00;96.70;;;;;;5033707;28;20116;-66
2022/05/06 12:34:07;;;;;;;10.77;6.45;;;20.10;97.40;;;;;;5063924;28;20360;-66
2022/05/06 12:36:33;;;;;;;7.20;5.55;;;20.30;97.70;;;;;;5053528;28;20055;-66
2022/05/06 12:38:59;;;;;;;8.95;6.18;;;20.40;97.70;;;;;;5070848;28;20479;-67
2022/05/06 12:41:34;;;;;;;9.77;6.13;;;20.50;97.80;;;;;;5053384;28;20036;-66
2022/05/06 12:44:18;;;;;;;7.20;6.03;;;20.50;97.20;;;;;;5048215;28;20449;-66
2022/05/06 12:46:45;;;;;;;10.05;6.38;;;20.70;97.10;;;;;;5033439;28;20075;-68
2022/05/06 12:51:54;;;;;;;8.63;5.60;;;20.70;97.00;;;;;;5053409;28;20074;-66
2022/05/06 12:54:22;;;;;;;8.68;6.00;;;20.70;96.50;;;;;;5045786;28;20040;-66
2022/05/06 12:56:48;;;;;;;8.68;5.20;;;20.70;97.00;;;;;;5053364;28;20099;-66
2022/05/06 12:59:14;;;;;;;7.55;5.20;;;20.70;97.10;;;;;;5036698;28;20119;-68
2022/05/06 13:01:40;;;;;;;9.35;5.35;;;20.60;96.30;;;;;;5034745;28;20079;-65
2022/05/06 13:04:06;;;;;;;6.95;5.65;;;20.60;97.00;;;;;;5033692;28;20068;-67
2022/05/06 13:06:32;;;;;;;8.18;5.45;;;20.50;96.20;;;;;;5051990;28;20049;-67
2022/05/06 13:08:58;;;;;;;7.95;5.80;;;20.50;96.90;;;;;;5033521;28;20387;-66
2022/05/06 13:11:24;;;;;;;8.02;5.35;;;20.40;96.40;;;;;;5037841;28;20037;-66
2022/05/06 13:13:50;;;;;;;6.65;5.10;;;20.50;97.00;;;;;;5035215;28;20128;-67
2022/05/06 13:16:15;;;;;;;10.07;5.40;;;20.60;97.30;;;;;;5053304;28;20102;-65
2022/05/06 13:18:41;;;;;;;7.47;4.43;;;20.50;96.50;;;;;;5053034;28;20087;-66
2022/05/06 13:21:07;;;;;;;5.30;4.70;;;20.60;97.20;;;;;;5049899;28;20048;-67
2022/05/06 13:23:33;;;;;;;7.20;4.45;;;20.50;96.50;;;;;;5036593;28;20045;-67
2022/05/06 13:25:59;;;;;;;5.95;4.85;;;20.40;96.20;;;;;;5032670;28;20044;-66
2022/05/06 13:28:24;;;;;;;7.95;4.95;;;20.40;96.30;;;;;;5033184;28;20037;-67
2022/05/06 13:30:50;;;;;;;6.63;4.80;;;20.40;97.10;;;;;;5043216;28;20047;-67
2022/05/06 13:33:16;;;;;;;6.25;4.13;;;20.40;96.90;;;;;;5045787;28;20041;-67
2022/05/06 13:35:43;;;;;;;5.55;3.72;;;20.50;96.80;;;;;;5067883;28;20028;-66
2022/05/06 13:38:09;;;;;;;6.35;3.70;;;20.50;96.30;;;;;;5061451;28;20575;-66
2022/05/06 13:40:35;;;;;;;6.25;3.80;;;20.50;96.00;;;;;;5035291;28;20170;-66
2022/05/06 13:43:00;;;;;;;13.18;3.53;;;20.50;95.90;;;;;;5033828;28;20036;-70
2022/05/06 13:45:26;;;;;;;6.63;3.60;;;20.50;95.30;;;;;;5037019;28;20061;-67
2022/05/06 13:47:52;;;;;;;6.30;3.45;;;20.50;96.00;;;;;;5032084;28;20041;-67
2022/05/06 13:50:18;;;;;;;5.57;3.85;;;20.60;95.60;;;;;;5032595;28;20143;-66
2022/05/06 13:52:44;;;;;;;7.72;3.70;;;20.60;95.00;;;;;;5048958;28;20131;-68
2022/05/06 13:55:09;;;;;;;6.43;4.60;;;20.50;95.70;;;;;;5034373;28;20044;-67
2022/05/06 14:00:22;;;;;;;4.80;3.72;;;20.50;95.70;;;;;;5054536;28;20037;-70
2022/05/06 14:02:54;;;;;;;9.32;4.47;;;20.60;95.40;;;;;;5032261;28;20159;-67
2022/05/06 14:05:20;;;;;;;8.20;4.60;;;20.80;95.60;;;;;;5044118;28;20044;-67
2022/05/06 14:07:45;;;;;;;8.13;4.57;;;20.90;94.70;;;;;;5054262;28;20055;-66
2022/05/06 14:10:11;;;;;;;6.47;4.25;;;20.90;95.10;;;;;;5051679;28;20173;-67
2022/05/06 14:12:37;;;;;;;7.20;3.75;;;20.90;95.30;;;;;;5037050;28;20131;-66
2022/05/06 14:15:04;;;;;;;7.60;3.72;;;21.00;95.50;;;;;;5055512;28;20051;-66
2022/05/06 14:17:30;;;;;;;8.23;5.03;;;21.00;95.50;;;;;;5055573;28;20048;-68
2022/05/06 14:19:57;;;;;;;9.48;4.80;;;20.90;94.20;;;;;;5072161;28;20040;-66
2022/05/06 14:22:23;;;;;;;5.82;4.63;;;20.90;94.80;;;;;;5072044;28;20044;-67
2022/05/06 14:24:49;;;;;;;7.70;5.10;;;21.00;95.30;;;;;;5061130;28;20407;-67
2022/05/06 14:27:16;;;;;;;11.32;5.13;;;20.80;95.00;;;;;;5053405;28;20052;-66
2022/05/06 14:29:45;;;;;;;9.20;5.90;;;20.80;95.80;;;;;;5059072;28;20442;-67
2022/05/06 14:32:11;;;;;;;10.20;5.95;;;20.80;95.50;;;;;;5054267;28;20041;-67
2022/05/06 14:34:38;;;;;;;8.40;5.95;;;20.90;95.80;;;;;;5035634;28;20497;-66
2022/05/06 14:37:04;;;;;;;8.25;5.90;;;21.00;95.90;;;;;;5061848;28;20619;-67
2022/05/06 14:39:30;;;;;;;8.15;6.72;;;20.90;96.30;;;;;;5053351;28;20040;-66
2022/05/06 14:41:55;;;;;;;8.68;6.22;;;20.80;95.40;;;;;;5057973;28;20050;-66
2022/05/06 14:44:21;;;;;;;10.40;6.15;;;20.70;95.20;;;;;;5088683;28;20043;-64
2022/05/06 14:46:47;;;;;;;8.50;6.30;;;20.60;96.00;;;;;;5070872;28;20131;-68
2022/05/06 14:49:13;;;;;;;13.00;7.30;;;20.50;96.20;;;;;;5054189;28;20048;-66
2022/05/06 14:51:38;;;;;;;11.80;7.25;;;20.20;96.00;;;;;;5070312;28;20529;-66
2022/05/06 14:54:04;;;;;;;17.67;7.13;;;20.10;96.30;;;;;;5058557;28;20037;-66
2022/05/06 14:56:31;;;;;;;8.15;5.65;;;20.10;96.40;;;;;;5073420;28;20043;-64
2022/05/06 14:58:58;;;;;;;13.45;6.15;;;20.00;96.60;;;;;;5068453;28;20079;-68
2022/05/06 15:01:24;;;;;;;8.10;5.45;;;19.90;96.50;;;;;;5074659;28;20044;-66
2022/05/06 15:03:50;;;;;;;7.07;6.07;;;19.70;96.70;;;;;;5074805;28;20387;-67
2022/05/06 15:06:15;;;;;;;8.60;6.25;;;19.70;96.40;;;;;;5067906;28;20044;-66
2022/05/06 15:08:41;;;;;;;9.95;6.20;;;19.70;97.10;;;;;;5053017;28;20090;-67
2022/05/06 15:11:09;;;;;;;8.85;5.32;;;19.70;97.00;;;;;;5054711;28;20037;-66
2022/05/06 15:13:35;;;;;;;6.90;5.55;;;19.90;96.70;;;;;;5050303;28;20047;-67
2022/05/06 15:16:01;;;;;;;7.50;5.90;;;20.00;96.70;;;;;;5035003;28;20541;-67
2022/05/06 15:21:13;;;;;;;8.05;5.63;;;20.10;96.60;;;;;;5035736;28;20064;-67
2022/05/06 15:23:49;;;;;;;8.32;5.97;;;20.20;96.60;;;;;;5041463;28;20041;-68
2022/05/06 15:26:16;;;;;;;8.43;5.88;;;20.40;96.30;;;;;;5049796;28;20045;-66
2022/05/06 15:28:42;;;;;;;9.65;5.90;;;20.50;95.90;;;;;;5034756;28;20484;-66
2022/05/06 15:31:11;;;;;;;8.32;6.88;;;20.60;96.40;;;;;;5034544;28;20044;-66
2022/05/06 15:33:37;;;;;;;12.02;7.70;;;20.60;96.00;;;;;;5036405;28;20059;-66
2022/05/06 15:36:03;;;;;;;8.77;7.30;;;20.70;96.20;;;;;;5034691;28;20127;-66
2022/05/06 15:38:33;;;;;;;8.40;6.55;;;20.80;95.70;;;;;;5050642;28;20051;-66
2022/05/06 15:40:59;;;;;;;9.10;7.38;;;20.90;95.90;;;;;;5034772;28;20064;-67
2022/05/06 15:43:24;;;;;;;10.77;7.25;;;20.90;94.90;;;;;;5050291;28;20036;-67
2022/05/06 15:45:51;;;;;;;8.75;6.70;;;20.90;95.40;;;;;;5033979;28;20480;-67
2022/05/06 15:48:17;;;;;;;10.50;6.97;;;21.00;95.20;;;;;;5034128;28;20065;-66
2022/05/06 15:50:43;;;;;;;10.25;7.05;;;21.10;95.60;;;;;;5047005;28;20120;-66
2022/05/06 15:53:09;;;;;;;13.45;7.15;;;21.00;94.50;;;;;;5036924;28;20059;-67
2022/05/06 15:55:35;;;;;;;10.18;6.70;;;20.90;94.50;;;;;;5041612;28;20502;-66
2022/05/06 15:58:01;;;;;;;8.43;6.97;;;21.00;94.90;;;;;;5033915;28;20041;-68
2022/05/06 16:00:27;;;;;;;12.00;7.43;;;20.90;95.00;;;;;;5034055;28;20087;-65
2022/05/06 16:02:53;;;;;;;9.93;6.95;;;20.80;94.90;;;;;;5043306;28;20036;-72
2022/05/06 16:05:18;;;;;;;10.82;7.00;;;20.80;95.10;;;;;;5022399;28;20049;-65
2022/05/06 16:07:46;;;;;;;9.43;7.30;;;20.80;95.40;;;;;;5027002;28;20048;-68
2022/05/06 16:10:13;;;;;;;11.77;7.80;;;20.60;94.60;;;;;;5034158;28;20686;-65
2022/05/06 16:12:40;;;;;;;8.50;7.53;;;20.50;95.00;;;;;;5037336;28;20040;-66
2022/05/06 16:15:25;;;;;;;12.52;7.50;;;20.20;94.80;;;;;;5048485;28;20107;-69
2022/05/06 16:17:55;;;;;;;7.63;6.88;;;20.10;94.70;;;;;;5043101;28;20573;-65
2022/05/06 16:20:23;;;;;;;10.55;6.80;;;20.10;95.20;;;;;;5017711;28;20052;-67
2022/05/06 16:22:50;;;;;;;10.73;6.82;;;20.10;95.50;;;;;;5033477;28;20045;-66
2022/05/06 16:25:16;;;;;;;8.70;6.03;;;20.10;95.50;;;;;;5033427;28;20111;-67
2022/05/06 16:27:42;;;;;;;10.23;7.57;;;20.20;96.10;;;;;;5046568;28;20044;-68
2022/05/06 16:30:10;;;;;;;10.05;7.53;;;20.10;95.30;;;;;;5022449;28;20087;-65
2022/05/06 16:32:40;;;;;;;12.35;7.25;;;20.10;95.30;;;;;;5024044;28;20079;-68
2022/05/06 16:37:52;;;;;;;9.98;6.78;;;19.80;95.10;;;;;;5040861;28;20376;-66
2022/05/06 16:40:18;;;;;;;11.82;7.55;;;19.70;95.30;;;;;;5053078;28;20067;-66
2022/05/06 16:42:44;;;;;;;7.20;6.50;;;19.70;95.70;;;;;;5051481;28;20045;-67
2022/05/06 16:45:14;;;;;;;9.52;6.88;;;19.70;96.10;;;;;;5052803;28;20040;-66
2022/05/06 16:47:40;;;;;;;12.52;6.63;;;19.80;96.20;;;;;;5043133;28;20128;-65
2022/05/06 16:50:07;;;;;;;11.98;6.90;;;19.80;96.50;;;;;;5048590;28;20475;-67
2022/05/06 16:52:36;;;;;;;10.68;6.70;;;19.70;96.00;;;;;;5053130;28;20033;-66
2022/05/06 16:55:02;;;;;;;8.98;6.78;;;19.70;96.40;;;;;;5032852;28;20044;-65
2022/05/06 16:57:28;;;;;;;8.95;6.97;;;19.70;96.00;;;;;;5036328;28;20047;-67
2022/05/06 16:59:54;;;;;;;8.18;6.00;;;19.60;95.80;;;;;;5044945;28;20436;-66
2022/05/06 17:02:20;;;;;;;8.50;6.43;;;19.50;96.00;;;;;;5032576;28;20084;-68
2022/05/06 17:04:45;;;;;;;13.95;7.43;;;19.50;96.00;;;;;;5056373;28;20124;-68
2022/05/06 17:07:11;;;;;;;10.63;6.93;;;19.40;96.10;;;;;;5052027;28;20135;-67
2022/05/06 17:09:37;;;;;;;6.43;5.82;;;19.40;96.10;;;;;;5055945;28;20049;-66
2022/05/06 17:12:04;;;;;;;8.10;5.32;;;19.30;96.20;;;;;;5040401;28;20044;-66
2022/05/06 17:14:29;;;;;;;7.90;5.50;;;19.20;96.40;;;;;;5049864;28;20067;-68
2022/05/06 17:16:55;;;;;;;7.72;5.38;;;19.10;96.50;;;;;;5052393;28;20044;-67
2022/05/06 17:19:21;;;;;;;7.25;5.22;;;19.00;96.50;;;;;;5061957;28;20040;-66
2022/05/06 17:21:48;;;;;;;7.72;4.78;;;18.90;96.50;;;;;;5039352;28;20037;-67
2022/05/06 17:24:14;;;;;;;9.80;5.60;;;18.80;96.20;;;;;;5036788;28;20045;-65
2022/05/06 17:26:39;;;;;;;8.95;6.05;;;18.60;96.50;;;;;;5036137;28;20048;-67
2022/05/06 17:29:05;;;;;;;9.98;6.22;;;18.50;96.40;;;;;;5040540;28;20132;-66
2022/05/06 17:31:35;;;;;;;7.88;5.75;;;18.40;96.70;;;;;;5038797;28;20073;-66
2022/05/06 17:34:01;;;;;;;7.63;5.63;;;18.30;96.70;;;;;;5032407;28;20527;-65
2022/05/06 17:36:28;;;;;;;7.65;5.90;;;18.20;97.00;;;;;;5032251;28;20044;-68
2022/05/06 17:38:56;;;;;;;8.50;5.82;;;18.20;97.10;;;;;;5031914;28;20444;-67
2022/05/06 17:41:22;;;;;;;9.57;5.63;;;18.20;97.40;;;;;;5017176;28;20120;-67
2022/05/06 17:43:48;;;;;;;8.07;5.15;;;18.10;97.70;;;;;;5052861;28;20115;-67
2022/05/06 17:46:13;;;;;;;6.90;4.95;;;18.10;97.70;;;;;;5036972;28;20135;-66
2022/05/06 17:48:39;;;;;;;9.23;5.32;;;18.10;97.70;;;;;;5037134;28;20128;-65
2022/05/06 17:51:05;;;;;;;6.53;4.88;;;18.00;97.80;;;;;;5037609;28;20040;-65
2022/05/06 17:53:30;;;;;;;7.38;4.95;;;18.10;98.00;;;;;;5040950;28;20041;-66
2022/05/06 17:55:56;;;;;;;6.82;4.93;;;18.00;98.10;;;;;;5062190;28;20467;-67
2022/05/06 17:58:22;;;;;;;9.30;5.20;;;18.00;98.10;;;;;;5036533;28;20048;-65
2022/05/06 18:03:32;;;;;;;7.28;4.95;;;18.00;98.50;;;;;;5036040;28;20083;-67
2022/05/06 18:05:58;;;;;;;8.00;4.55;;;18.00;98.80;;;;;;5036420;28;20107;-65
2022/05/06 18:08:23;;;;;;;7.80;4.43;;;18.00;98.80;;;;;;5034949;28;20408;-66
2022/05/06 18:10:49;;;;;;;5.53;4.45;;;17.90;99.00;;;;;;5038093;28;20044;-67
2022/05/06 18:13:15;;;;;;;9.88;5.35;;;17.90;99.00;;;;;;5039486;28;20025;-65
2022/05/06 18:15:40;;;;;;;6.47;5.15;;;17.80;98.80;;;;;;5038636;28;20029;-66
2022/05/06 18:18:07;;;;;;;7.18;5.05;;;17.80;98.70;;;;;;5039500;28;20133;-65
2022/05/06 18:20:33;;;;;;;8.90;5.50;;;17.80;98.80;;;;;;5042072;28;20398;-66
2022/05/06 18:22:59;;;;;;;6.75;5.20;;;17.70;98.80;;;;;;5023193;28;20045;-66
2022/05/06 18:25:25;;;;;;;9.80;5.15;;;17.70;98.90;;;;;;5042845;28;20047;-66
2022/05/06 18:27:50;;;;;;;6.25;5.15;;;17.70;98.90;;;;;;5051495;28;20049;-66
2022/05/06 18:30:16;;;;;;;6.88;5.43;;;17.60;99.30;;;;;;5040510;28;20084;-67
2022/05/06 18:35:26;;;;;;;6.00;5.30;;;17.50;99.20;;;;;;5055425;28;20044;-68
2022/05/06 18:37:56;;;;;;;7.38;5.65;;;17.40;99.20;;;;;;5055353;28;20433;-68
2022/05/06 18:40:21;;;;;;;16.77;6.90;;;17.30;99.40;;;;;;5055335;28;20083;-66
2022/05/06 18:42:47;;;;;;;10.82;6.88;;;17.20;99.40;;;;;;5046465;28;20041;-67
2022/05/06 18:45:13;;;;;;;7.25;6.38;;;17.10;99.60;;;;;;5019395;28;20083;-66
2022/05/06 18:47:40;;;;;;;8.00;6.60;;;17.00;99.60;;;;;;5019037;28;20120;-68
2022/05/06 18:50:06;;;;;;;10.77;6.70;;;17.00;99.90;;;;;;5034289;28;20029;-65
2022/05/06 18:52:32;;;;;;;8.35;6.35;;;16.90;99.80;;;;;;5045633;28;20037;-66
2022/05/06 18:54:58;;;;;;;11.88;7.47;;;16.80;99.90;;;;;;5038374;28;20136;-66
2022/05/06 18:57:23;;;;;;;11.32;7.13;;;16.80;99.90;;;;;;5053220;28;20411;-66
2022/05/06 18:59:49;;;;;;;8.60;5.82;;;16.70;99.90;;;;;;5053023;28;20041;-65
2022/05/06 19:02:15;;;;;;;7.63;5.80;;;16.60;99.90;;;;;;5042491;28;20505;-68
2022/05/06 19:04:40;;;;;;;6.35;5.55;;;16.50;99.90;;;;;;5037762;28;20060;-67
2022/05/06 19:07:06;;;;;;;9.02;6.00;;;16.30;99.90;;;;;;5063279;28;20056;-66
2022/05/06 19:09:32;;;;;;;9.20;6.03;;;16.30;99.90;;;;;;5035100;28;20101;-67
2022/05/06 19:11:57;;;;;;;10.50;6.28;;;16.20;99.90;;;;;;5034831;28;20072;-68
2022/05/06 19:14:24;;;;;;;10.43;7.55;;;16.10;99.90;;;;;;5038900;28;20044;-68
2022/05/06 19:16:49;;;;;;;10.13;7.78;;;16.00;99.90;;;;;;5044140;28;20453;-68
2022/05/06 19:19:15;;;;;;;8.95;7.35;;;16.00;99.90;;;;;;5046866;28;20051;-69
2022/05/06 19:24:43;;;;;;;10.38;7.38;;;15.80;99.90;;;;;;5043076;28;20041;-69
2022/05/06 19:27:17;;;;;;;10.93;7.25;;;15.70;99.90;;;;;;5042915;28;20049;-68
2022/05/06 19:29:43;;;;;;;8.77;6.53;;;15.60;99.90;;;;;;5042552;28;20614;-67
2022/05/06 19:32:10;;;;;;;10.00;7.40;;;15.60;99.90;;;;;;5041721;28;20033;-66
2022/05/06 19:34:35;;;;;;;10.05;7.30;;;15.60;99.90;;;;;;5041103;28;20116;-66
2022/05/06 19:37:02;;;;;;;10.65;7.13;;;15.50;99.90;;;;;;5042723;28;20187;-65
2022/05/06 19:39:27;;;;;;;8.52;6.65;;;15.40;99.90;;;;;;5042461;28;20068;-67
2022/05/06 19:41:55;;;;;;;8.63;7.38;;;15.40;99.90;;;;;;5043253;28;20045;-68
2022/05/06 19:44:22;;;;;;;12.73;7.35;;;15.30;99.90;;;;;;5064158;28;20040;-67
2022/05/06 19:46:52;;;;;;;8.65;7.40;;;15.20;99.90;;;;;;5030002;28;20053;-67
2022/05/06 19:49:21;;;;;;;10.90;7.40;;;15.10;99.90;;;;;;5043921;28;20037;-65
2022/05/06 19:54:32;;;;;;;9.30;7.03;;;15.00;99.90;;;;;;5044459;28;20044;-68
2022/05/06 19:56:59;;;;;;;9.07;7.28;;;14.90;99.90;;;;;;5046513;28;20052;-66
2022/05/06 19:59:25;;;;;;;10.43;7.72;;;14.90;99.90;;;;;;5037214;28;20045;-65
2022/05/06 20:01:51;;;;;;;10.00;7.60;;;14.80;99.90;;;;;;5038715;28;20041;-68
2022/05/06 20:04:17;;;;;;;11.65;7.38;;;14.80;99.90;;;;;;5053322;28;20063;-65
2022/05/06 20:06:42;;;;;;;8.75;7.35;;;14.70;99.90;;;;;;5053938;28;20414;-66
2022/05/06 20:09:08;;;;;;;10.88;8.00;;;14.70;99.90;;;;;;5045610;28;20044;-64
2022/05/06 20:11:34;;;;;;;11.48;9.13;;;14.60;99.90;;;;;;5048403;28;20040;-65
2022/05/06 20:14:00;;;;;;;10.60;8.48;;;14.60;99.90;;;;;;5053578;28;20502;-64
2022/05/06 20:16:26;;;;;;;11.27;8.50;;;14.60;99.90;;;;;;5044793;28;20044;-66
2022/05/06 20:18:52;;;;;;;9.73;8.23;;;14.50;99.90;;;;;;5016679;28;20053;-66
2022/05/06 20:21:18;;;;;;;12.13;8.18;;;14.50;99.90;;;;;;5035459;28;20119;-66
2022/05/06 20:23:44;;;;;;;11.38;8.80;;;14.40;99.90;;;;;;5034600;28;20937;-65
2022/05/06 20:26:11;;;;;;;12.15;9.13;;;14.40;99.90;;;;;;5016759;28;20128;-65
2022/05/06 20:28:36;;;;;;;15.00;9.10;;;14.40;99.90;;;;;;5066338;28;20079;-65
2022/05/06 20:31:04;;;;;;;10.25;9.15;;;14.30;99.90;;;;;;5044233;28;20072;-67
2022/05/06 20:33:30;;;;;;;14.55;9.77;;;14.30;99.90;;;;;;5016075;28;20044;-67
2022/05/06 20:35:56;;;;;;;16.55;9.63;;;14.20;99.90;;;;;;5033363;28;20044;-67
2022/05/06 20:38:24;;;;;;;13.00;9.40;;;14.20;99.90;;;;;;5033114;28;20047;-67
2022/05/06 20:40:50;;;;;;;15.60;11.77;;;14.10;99.90;;;;;;5035501;28;20048;-66
2022/05/06 20:43:15;;;;;;;20.58;12.77;;;14.00;99.90;;;;;;5033544;28;20063;-66
2022/05/06 20:45:41;;;;;;;16.02;10.75;;;14.00;99.90;;;;;;5035264;28;20053;-66
2022/05/06 20:48:07;;;;;;;14.65;10.32;;;13.90;99.90;;;;;;5040591;28;20052;-66
2022/05/06 20:50:33;;;;;;;13.02;10.10;;;13.80;99.90;;;;;;5041133;28;20036;-67
2022/05/06 20:52:58;;;;;;;15.98;10.52;;;13.80;99.90;;;;;;5039360;28;20033;-66
2022/05/06 20:55:24;;;;;;;13.68;10.10;;;13.70;99.90;;;;;;5039216;28;20088;-65
2022/05/06 21:00:34;;;;;;;11.70;10.00;;;13.60;99.90;;;;;;5037047;28;20064;-66
2022/05/06 21:03:00;;;;;;;12.50;10.55;;;13.60;99.90;;;;;;5039334;28;20055;-65
2022/05/06 21:05:27;;;;;;;12.07;9.85;;;13.60;99.90;;;;;;5051290;28;20040;-66
2022/05/06 21:13:13;;;;;;;14.50;10.70;;;13.50;99.90;;;;;;5051774;28;20045;-66
2022/05/06 21:13:23;;;;;;;13.80;10.40;;;13.40;99.90;;;;;;5036676;28;20545;-66
2022/05/06 21:15:48;;;;;;;15.00;10.88;;;13.40;99.90;;;;;;5041335;28;20036;-66
2022/05/06 21:18:14;;;;;;;15.55;11.07;;;13.40;99.90;;;;;;5034811;28;20028;-66
2022/05/06 21:20:40;;;;;;;15.20;13.55;;;13.40;99.90;;;;;;5032540;28;20118;-65
2022/05/06 21:23:06;;;;;;;15.05;12.45;;;13.30;99.90;;;;;;5032504;28;20111;-66
2022/05/06 21:25:32;;;;;;;14.90;12.18;;;13.30;99.90;;;;;;5034171;28;20093;-66
2022/05/06 21:27:58;;;;;;;15.27;11.57;;;13.20;99.90;;;;;;5050372;28;20041;-66
2022/05/06 21:30:24;;;;;;;13.10;11.27;;;13.20;99.90;;;;;;5034751;28;20060;-66
2022/05/06 21:32:51;;;;;;;13.93;11.38;;;13.10;99.90;;;;;;5051492;28;20044;-66
2022/05/06 21:35:17;;;;;;;13.93;11.65;;;13.10;99.90;;;;;;5039833;28;20037;-65
2022/05/06 21:37:43;;;;;;;13.20;11.80;;;13.10;99.90;;;;;;5063168;28;20395;-66
2022/05/06 21:40:10;;;;;;;17.02;12.30;;;13.10;99.90;;;;;;5064028;28;20111;-65
2022/05/06 21:42:36;;;;;;;12.63;10.75;;;13.00;99.90;;;;;;5068540;28;20043;-66
2022/05/06 21:45:02;;;;;;;15.40;11.63;;;13.00;99.90;;;;;;5051123;28;20379;-66
2022/05/06 21:47:28;;;;;;;14.50;11.55;;;12.90;99.90;;;;;;5040806;28;20071;-66
2022/05/06 21:49:55;;;;;;;13.23;11.77;;;12.90;99.90;;;;;;5040477;28;20047;-67
2022/05/06 21:52:21;;;;;;;13.55;11.90;;;12.80;99.90;;;;;;5068533;28;20049;-66
2022/05/06 21:54:47;;;;;;;14.52;12.13;;;12.80;99.90;;;;;;5069619;28;20076;-67
2022/05/06 21:57:16;;;;;;;14.10;12.27;;;12.80;99.90;;;;;;5060276;28;20033;-65
2022/05/06 21:59:43;;;;;;;14.70;11.80;;;12.70;99.90;;;;;;5069220;28;20478;-65
2022/05/06 22:02:09;;;;;;;15.93;12.50;;;12.70;99.90;;;;;;5040612;28;20402;-65
2022/05/06 22:04:35;;;;;;;15.57;12.27;;;12.70;99.90;;;;;;5015622;28;20048;-65
2022/05/06 22:07:01;;;;;;;14.65;12.32;;;12.60;99.90;;;;;;5044227;28;20080;-67
2022/05/06 22:09:27;;;;;;;14.38;11.57;;;12.60;99.90;;;;;;5053693;28;20402;-66
2022/05/06 22:11:53;;;;;;;13.88;11.80;;;12.50;99.90;;;;;;5035325;28;20136;-66
2022/05/06 22:14:20;;;;;;;13.02;11.60;;;12.50;99.90;;;;;;5054386;28;20064;-66
2022/05/06 22:16:46;;;;;;;13.30;11.82;;;12.40;99.90;;;;;;5052607;28;20513;-66
2022/05/06 22:19:15;;;;;;;13.70;12.20;;;12.40;99.90;;;;;;5071108;28;20040;-66
2022/05/06 22:21:40;;;;;;;16.20;12.40;;;12.40;99.90;;;;;;5068223;28;20051;-66
2022/05/06 22:24:06;;;;;;;15.95;12.70;;;12.40;99.90;;;;;;5064016;28;20040;-66
2022/05/06 22:26:32;;;;;;;14.05;12.45;;;12.40;99.90;;;;;;5059995;28;20130;-66
2022/05/06 22:28:58;;;;;;;15.85;13.30;;;12.30;99.90;;;;;;5082279;28;20041;-66
2022/05/06 22:31:24;;;;;;;18.60;14.50;;;12.30;99.90;;;;;;5082544;28;20452;-65
2022/05/06 22:36:33;;;;;;;18.65;13.82;;;12.20;99.90;;;;;;5052720;28;20110;-66
2022/05/06 22:38:59;;;;;;;15.77;13.45;;;12.20;99.90;;;;;;5055263;28;20044;-66
2022/05/06 22:46:55;;;;;;;13.32;11.77;;;12.10;99.90;;;;;;5073040;28;20051;-65
2022/05/06 22:49:21;;;;;;;13.55;12.05;;;12.10;99.90;;;;;;5054463;28;20044;-66
2022/05/06 22:51:47;;;;;;;14.43;11.48;;;12.00;99.90;;;;;;5052895;28;20506;-66
2022/05/06 22:54:16;;;;;;;17.92;12.60;;;12.00;99.90;;;;;;5058014;28;20480;-66
2022/05/06 22:56:41;;;;;;;17.02;10.57;;;12.00;99.90;;;;;;5069254;28;20568;-65
2022/05/06 22:59:08;;;;;;;13.90;11.05;;;11.90;99.90;;;;;;5071899;28;20073;-65
2022/05/06 23:01:34;;;;;;;15.15;11.30;;;11.90;99.90;;;;;;5055443;28;20044;-65
2022/05/06 23:04:00;;;;;;;15.32;11.15;;;11.90;99.90;;;;;;5068380;28;20052;-66
2022/05/06 23:06:26;;;;;;;11.68;10.25;;;11.90;99.90;;;;;;5059158;28;20451;-66
2022/05/06 23:08:55;;;;;;;12.15;10.63;;;11.90;99.90;;;;;;5069251;28;20036;-66
2022/05/06 23:11:21;;;;;;;14.75;10.35;;;11.80;99.90;;;;;;5052463;28;20436;-66
2022/05/06 23:13:47;;;;;;;15.02;10.23;;;11.80;99.90;;;;;;5075851;28;20086;-66
2022/05/06 23:16:13;;;;;;;14.95;10.95;;;11.80;99.90;;;;;;5046682;28;20040;-65
2022/05/06 23:18:39;;;;;;;14.93;11.30;;;11.80;99.90;;;;;;5093263;28;20097;-66
2022/05/06 23:21:05;;;;;;;14.82;11.60;;;11.80;99.90;;;;;;5089897;28;20041;-65
2022/05/06 23:23:30;;;;;;;15.13;12.38;;;11.70;99.90;;;;;;5091938;28;20043;-65